createdAt,value
2022-10-11T00:04:41.867Z,4.97
2022-10-11T00:09:45.480Z,5.43
2022-10-11T00:14:50.205Z,4.97
2022-10-11T00:19:53.574Z,4.73
2022-10-11T00:24:58.859Z,4.43
2022-10-11T00:30:04.125Z,3.70
2022-10-11T00:35:08.076Z,3.17
2022-10-11T00:40:15.718Z,3.97
2022-10-11T00:45:38.113Z,4.40
2022-10-11T00:50:43.300Z,3.90
2022-10-11T00:55:49.379Z,4.47
2022-10-11T01:00:54.415Z,3.80
2022-10-11T01:05:59.202Z,4.23
2022-10-11T01:11:03.239Z,4.73
2022-10-11T01:16:12.633Z,4.50
2022-10-11T01:21:20.603Z,3.93
2022-10-11T01:26:35.738Z,5.07
2022-10-11T01:31:43.179Z,5.07
2022-10-11T01:36:50.230Z,5.30
2022-10-11T01:41:55.088Z,5.30
2022-10-11T01:46:59.969Z,6.50
2022-10-11T01:52:05.549Z,6.57
2022-10-11T01:57:27.636Z,7.87
2022-10-11T02:02:40.455Z,7.63
2022-10-11T02:07:46.103Z,8.77
2022-10-11T02:12:53.189Z,9.00
2022-10-11T02:18:00.345Z,7.90
2022-10-11T02:23:07.185Z,7.93
2022-10-11T02:28:12.481Z,9.40
2022-10-11T02:33:22.275Z,9.20
2022-10-11T02:38:29.262Z,10.60
2022-10-11T02:43:36.740Z,11.80
2022-10-11T02:48:41.539Z,12.03
2022-10-11T02:53:44.990Z,11.73
2022-10-11T02:58:49.001Z,12.07
2022-10-11T03:03:54.125Z,13.10
2022-10-11T03:08:57.579Z,11.83
2022-10-11T03:14:01.006Z,13.97
2022-10-11T03:19:05.875Z,13.73
2022-10-11T03:24:09.351Z,13.53
2022-10-11T03:29:12.808Z,14.17
2022-10-11T03:34:17.524Z,13.80
2022-10-11T03:39:21.104Z,14.77
2022-10-11T03:44:24.598Z,14.77
2022-10-11T03:49:29.879Z,13.63
2022-10-11T03:54:33.675Z,14.77
2022-10-11T03:59:37.017Z,13.97
2022-10-11T04:04:41.886Z,13.50
2022-10-11T04:09:45.308Z,15.07
2022-10-11T04:14:48.941Z,13.07
2022-10-11T04:19:53.827Z,13.60
2022-10-11T04:24:57.259Z,13.90
2022-10-11T04:30:00.819Z,13.80
2022-10-11T04:35:06.375Z,13.83
2022-10-11T04:40:10.860Z,13.87
2022-10-11T04:45:15.454Z,13.47
2022-10-11T04:50:20.635Z,13.00
2022-10-11T04:55:24.214Z,15.73
2022-10-11T05:00:27.784Z,15.73
2022-10-11T05:05:32.835Z,17.40
2022-10-11T05:10:36.133Z,17.43
2022-10-11T05:15:39.861Z,18.97
2022-10-11T05:20:44.583Z,19.67
2022-10-11T05:25:48.275Z,19.60
2022-10-11T05:30:51.704Z,21.17
2022-10-11T05:35:56.595Z,18.13
2022-10-11T05:41:00.946Z,16.93
2022-10-11T05:46:04.610Z,19.23
2022-10-11T05:51:11.070Z,21.17
2022-10-11T05:56:19.518Z,20.83
2022-10-11T06:01:24.134Z,21.57
2022-10-11T06:06:28.975Z,21.93
2022-10-11T06:11:32.620Z,23.07
2022-10-11T06:16:36.175Z,21.20
2022-10-11T06:21:41.278Z,21.57
2022-10-11T06:26:44.991Z,20.70
2022-10-11T06:31:49.630Z,19.10
2022-10-11T06:36:54.670Z,17.50
2022-10-11T06:41:58.810Z,20.40
2022-10-11T06:47:02.491Z,21.33
2022-10-11T06:52:07.381Z,20.57
2022-10-11T06:57:11.637Z,20.77
2022-10-11T07:02:15.046Z,19.80
2022-10-11T07:07:19.811Z,22.50
2022-10-11T07:12:23.594Z,21.40
2022-10-11T07:17:27.482Z,22.53
2022-10-11T07:22:32.408Z,23.90
2022-10-11T07:27:37.620Z,23.17
2022-10-11T07:32:42.513Z,22.50
2022-10-11T07:37:47.532Z,26.90
2022-10-11T07:42:51.627Z,28.20
2022-10-11T07:47:58.961Z,24.07
2022-10-11T07:53:03.831Z,25.00
2022-10-11T07:58:07.620Z,24.83
2022-10-11T08:03:11.607Z,24.10
2022-10-11T08:08:16.792Z,23.80
2022-10-11T08:13:20.507Z,25.60
2022-10-11T08:18:56.993Z,23.63
2022-10-11T08:24:04.789Z,24.63
2022-10-11T08:29:08.268Z,24.67
2022-10-11T08:34:12.205Z,24.03
2022-10-11T08:39:17.317Z,20.73
2022-10-11T08:45:09.032Z,20.20
2022-10-11T08:50:05.463Z,18.63
2022-10-11T08:55:17.737Z,18.93
2022-10-11T09:00:22.141Z,23.73
2022-10-11T09:05:27.549Z,22.87
2022-10-11T09:10:53.155Z,21.40
2022-10-11T09:16:00.501Z,21.27
2022-10-11T09:21:10.966Z,20.57
2022-10-11T09:26:19.604Z,19.97
2022-10-11T09:31:23.489Z,19.33
2022-10-11T09:36:30.460Z,19.63
2022-10-11T09:41:37.718Z,20.00
2022-10-11T09:46:56.752Z,18.40
2022-10-11T09:52:12.057Z,18.90
2022-10-11T09:57:30.704Z,19.43
2022-10-11T10:02:41.230Z,18.93
2022-10-11T10:08:04.082Z,17.70
2022-10-11T10:13:21.923Z,19.07
2022-10-11T10:18:30.650Z,18.83
2022-10-11T10:37:29.835Z,17.47
2022-10-11T10:42:38.277Z,22.37
2022-10-11T10:47:48.525Z,18.23
2022-10-11T10:52:59.086Z,18.10
2022-10-11T10:58:22.367Z,17.80
2022-10-11T11:03:28.668Z,17.00
2022-10-11T11:08:49.326Z,14.90
2022-10-11T11:13:58.432Z,13.00
2022-10-11T11:19:05.182Z,11.40
2022-10-11T11:24:15.095Z,14.03
2022-10-11T11:29:32.982Z,14.47
2022-10-11T11:34:38.952Z,13.60
2022-10-11T11:39:44.945Z,14.10
2022-10-11T11:44:51.148Z,13.03
2022-10-11T11:49:58.996Z,15.00
2022-10-11T11:55:06.840Z,12.40
2022-10-11T12:00:15.777Z,12.53
2022-10-11T12:05:20.916Z,10.67
2022-10-11T12:10:27.310Z,12.97
2022-10-11T12:15:33.239Z,11.63
2022-10-11T12:20:38.846Z,12.97
2022-10-11T12:25:44.248Z,10.73
2022-10-11T12:31:04.964Z,12.80
2022-10-11T12:36:24.401Z,12.97
2022-10-11T12:41:48.771Z,13.53
2022-10-11T12:47:19.246Z,18.73
2022-10-11T12:52:28.072Z,14.43
2022-10-11T12:57:49.509Z,13.03
2022-10-11T13:02:53.226Z,14.43
2022-10-11T13:08:00.026Z,11.63
2022-10-11T13:13:04.605Z,11.37
2022-10-11T13:18:14.571Z,11.33
2022-10-11T13:23:24.074Z,11.20
2022-10-11T13:28:34.135Z,12.13
2022-10-11T13:33:42.773Z,12.03
2022-10-11T13:38:54.450Z,9.23
2022-10-11T13:44:00.586Z,8.97
2022-10-11T13:49:05.586Z,9.17
2022-10-11T13:54:13.809Z,8.57
2022-10-11T13:59:19.806Z,6.63
2022-10-11T14:04:28.671Z,5.97
2022-10-11T14:09:41.704Z,6.60
2022-10-11T14:14:45.736Z,7.50
2022-10-11T14:20:08.672Z,8.90
2022-10-11T14:25:16.275Z,10.07
2022-10-11T14:30:25.709Z,9.90
2022-10-11T14:35:31.836Z,10.57
2022-10-11T14:40:37.098Z,11.00
2022-10-11T14:45:41.127Z,9.87
2022-10-11T14:50:47.989Z,10.87
2022-10-11T14:55:53.132Z,10.50
2022-10-11T15:00:56.821Z,11.10
2022-10-11T15:06:00.158Z,11.90
2022-10-11T15:11:07.379Z,11.10
2022-10-11T15:16:12.402Z,12.83
2022-10-11T15:21:16.097Z,12.17
2022-10-11T15:26:23.121Z,11.23
2022-10-11T15:31:26.833Z,12.77
2022-10-11T15:36:30.393Z,12.93
2022-10-11T15:41:35.368Z,12.57
2022-10-11T15:46:41.554Z,12.00
2022-10-11T15:51:45.064Z,11.97
2022-10-11T15:56:49.819Z,11.03
2022-10-11T16:01:53.259Z,11.23
2022-10-11T16:06:56.772Z,11.80
2022-10-11T16:12:01.530Z,13.50
2022-10-11T16:17:05.752Z,11.77
2022-10-11T16:22:09.191Z,12.67
2022-10-11T16:27:17.958Z,10.83
2022-10-11T16:32:22.246Z,12.00
2022-10-11T16:37:25.527Z,11.93
2022-10-11T16:42:30.356Z,13.37
2022-10-11T16:47:33.782Z,12.30
2022-10-11T16:52:37.313Z,11.50
2022-10-11T16:57:42.056Z,14.50
2022-10-11T17:02:45.382Z,15.37
2022-10-11T17:07:48.860Z,19.97
2022-10-11T17:12:55.971Z,18.13
2022-10-11T17:17:59.383Z,16.07
2022-10-11T17:23:02.757Z,15.93
2022-10-11T17:28:07.631Z,16.70
2022-10-11T17:33:11.099Z,14.63
2022-10-11T17:38:14.502Z,15.10
2022-10-11T17:43:19.243Z,15.97
2022-10-11T17:48:22.520Z,15.27
2022-10-11T17:53:25.939Z,15.27
2022-10-11T17:58:30.683Z,16.57
2022-10-11T18:03:34.098Z,16.57
2022-10-11T18:08:40.652Z,14.50
2022-10-11T18:13:49.014Z,18.10
2022-10-11T18:18:52.360Z,16.47
2022-10-11T18:23:55.781Z,20.57
2022-10-11T18:29:00.600Z,18.17
2022-10-11T18:34:04.542Z,15.33
2022-10-11T18:39:08.754Z,18.83
2022-10-11T18:44:15.072Z,18.93
2022-10-11T18:49:18.459Z,17.70
2022-10-11T18:54:22.121Z,18.43
2022-10-11T18:59:26.996Z,17.53
2022-10-11T19:04:33.355Z,17.07
2022-10-11T19:09:36.747Z,16.43
2022-10-11T19:14:41.597Z,16.17
2022-10-11T19:19:45.084Z,18.13
2022-10-11T19:24:48.634Z,16.13
2022-10-11T19:29:53.421Z,16.23
2022-10-11T19:34:57.267Z,15.37
2022-10-11T19:40:00.521Z,16.77
2022-10-11T19:45:05.749Z,15.63
2022-10-11T19:50:09.611Z,19.20
2022-10-11T19:55:12.951Z,16.23
2022-10-11T20:00:19.127Z,16.50
2022-10-11T20:05:22.761Z,16.83
2022-10-11T20:10:26.305Z,16.90
2022-10-11T20:15:31.342Z,16.67
2022-10-11T20:20:34.847Z,17.90
2022-10-11T20:25:38.254Z,28.27
2022-10-11T20:30:45.084Z,15.70
2022-10-11T20:35:57.931Z,16.83
2022-10-11T20:41:01.789Z,15.03
2022-10-11T20:46:07.385Z,15.20
2022-10-11T20:51:11.639Z,14.80
2022-10-11T20:56:16.208Z,15.07
2022-10-11T21:01:21.871Z,15.97
2022-10-11T21:06:25.616Z,16.30
2022-10-11T21:11:30.051Z,18.07
2022-10-11T21:16:35.286Z,15.00
2022-10-11T21:21:38.773Z,15.80
2022-10-11T21:26:42.184Z,16.23
2022-10-11T21:31:46.930Z,15.83
2022-10-11T21:36:50.661Z,15.50
2022-10-11T21:41:54.052Z,16.73
2022-10-11T21:47:06.984Z,17.10
2022-10-11T21:52:11.346Z,15.37
2022-10-11T21:57:14.674Z,17.13
2022-10-11T22:02:19.446Z,16.20
2022-10-11T22:07:23.037Z,17.30
2022-10-11T22:12:26.532Z,15.47
2022-10-11T22:17:31.310Z,15.90
2022-10-11T22:22:35.161Z,16.10
2022-10-11T22:27:39.232Z,14.30
2022-10-11T22:32:44.082Z,15.20
2022-10-11T22:37:47.573Z,15.60
2022-10-11T22:42:51.208Z,16.53
2022-10-11T22:47:56.128Z,18.23
2022-10-11T22:52:59.801Z,16.80
2022-10-11T22:58:03.684Z,16.10
2022-10-11T23:03:08.675Z,15.40
2022-10-11T23:08:12.278Z,16.40
2022-10-11T23:13:16.157Z,13.33
2022-10-11T23:18:20.988Z,12.83
2022-10-11T23:23:24.434Z,13.90
2022-10-11T23:28:27.998Z,13.60
2022-10-11T23:33:32.677Z,14.10
2022-10-11T23:38:36.827Z,14.93
2022-10-11T23:43:40.128Z,14.40
2022-10-11T23:48:45.198Z,13.37
2022-10-11T23:53:48.862Z,14.13
2022-10-11T23:58:52.536Z,12.63
